Taycheedah, Wisconsin
Current Conditions -  °F | °C
As of 9:53 AM on Saturday 20 Dec 2014 (Local Time) from KFLD Reporting Station
Overcast Overcast  
Wind Chill: 27°   Ceiling: 3800
Heat Index: 27°   Visibility: 8mi
Dew Point: 21°   Wind: 0mph
Humidity: 78%   Direction: NA
Pressure: 30.26"   Gusts: NA
Location:  43.7436°N, 88.3886°W
Report Text: KFLD 201553Z AUTO 00000KT 8SM OVC038 M03/M06 A3026 RMK AO2 SLP260 T10281061
Loading
Personal Weather Stations






























Interactive Weather Map New forecast layout! Learn more

10-Day Weather Forecast

Advertisements
Track Severe Weather on mobile